Nearby METAR Reports

 

KMQS - Coatesville, Pennsylvania, USA
Distance from station: ENE 6mi, 10km
Updated: Tue, 20-Aug-2019 12:15pm EDT
Clear
Clear
 Wind from SE
Wind: SE 5 mph , 7 km/h
Temperature: 86°F , 30°C
Heat Index: 91°F , 33°C
Dew Point: 70°F , 21°C
Humidity: 59%
Barometer: 30.14 inHg , 1020.7 hPa
Clouds: Clear
Visibility: 10 miles , 16 km
2019/08/20 16:15 KMQS 201615Z AUTO 13004KT 10SM CLR 30/21 A3014 RMK AO2
KLNS - Lancaster, Pennsylvania, USA
Distance from station: NW 21mi, 33km
Updated: Tue, 20-Aug-2019 11:53am EDT
Few Clouds
Few Clouds
 Wind from E
Wind: E 5 mph , 7 km/h
Temperature: 86°F , 30°C
Heat Index: 91°F , 33°C
Dew Point: 70°F , 21°C
Humidity: 59%
Barometer: 30.12 inHg , 1020 hPa
Clouds: Few Clouds
Visibility: 10 miles , 16 km
Cloud details: Few Clouds 3500 ft
2019/08/20 15:53 KLNS 201553Z 09004KT 10SM FEW035 30/21 A3012 RMK AO2 SLP194 T03000206
 
KILG - Wilmington, Delaware, USA
Distance from station: SE 28mi, 45km
Updated: Tue, 20-Aug-2019 11:51am EDT
Clear
Clear
 Wind from SE
Wind: SE 5 mph , 7 km/h
Temperature: 88°F , 31°C
Heat Index: 95°F , 35°C
Dew Point: 72°F , 22°C
Humidity: 59%
Barometer: 30.10 inHg , 1019.3 hPa
Clouds: Clear
Visibility: 10 miles , 16 km
2019/08/20 15:51 KILG 201551Z 13004KT 10SM CLR 31/22 A3010 RMK AO2 SLP192 T03110222
KRDG - Reading, Pennsylvania, USA
Distance from station: N 29mi, 47km
Updated: Tue, 20-Aug-2019 11:54am EDT
Clear
Clear
 Wind from calm
Wind: Calm
Temperature: 88°F , 31°C
Heat Index: 93°F , 34°C
Dew Point: 70°F , 21°C
Humidity: 55%
Barometer: 30.10 inHg , 1019.3 hPa
Clouds: Clear
Visibility: 10 miles , 16 km
2019/08/20 15:54 KRDG 201554Z 00000KT 10SM CLR 31/21 A3010 RMK AO2 SLP195 T03060211
 
KPTW - Pottstown, Pennsylvania, USA
Distance from station: NE 30mi, 48km
Updated: Tue, 20-Aug-2019 11:54am EDT
Clear
Clear
 Wind from calm
Wind: Calm
Temperature: 82°F , 28°C
Heat Index: 84°F , 29°C
Dew Point: 66°F , 19°C
Humidity: 58%
Barometer: 30.13 inHg , 1020.3 hPa
Clouds: Clear
Visibility: 10 miles , 16 km
2019/08/20 15:54 KPTW 201554Z AUTO 00000KT 10SM CLR 28/19 A3013 RMK AO2 SLP199 T02830194